createdAt,value
2018-06-18T02:28:59.945Z,15.62
2018-06-18T02:51:50.745Z,15.74
2018-06-18T03:18:03.161Z,15.30
2018-06-18T03:55:40.198Z,15.22
2018-06-18T04:01:29.599Z,14.73
2018-06-18T04:07:50.294Z,15.29
2018-06-18T04:10:54.433Z,15.30
2018-06-18T04:14:16.076Z,15.39
2018-06-18T04:16:59.359Z,15.46
2018-06-18T04:19:47.669Z,15.50
2018-06-18T04:25:55.358Z,15.61
2018-06-18T04:28:52.880Z,14.82
2018-06-18T04:33:20.463Z,15.46
2018-06-18T04:39:12.509Z,15.53
2018-06-18T04:42:02.100Z,15.64
2018-06-18T04:44:48.344Z,15.78
2018-06-18T04:47:33.672Z,15.86
2018-06-18T04:53:03.485Z,16.06
2018-06-18T04:55:38.392Z,16.16
2018-06-18T04:58:27.816Z,16.29
2018-06-18T05:03:58.521Z,16.48
2018-06-18T05:06:36.019Z,16.42
2018-06-18T05:11:20.455Z,16.45
2018-06-18T05:13:52.201Z,16.48
2018-06-18T05:16:37.218Z,16.58
2018-06-18T05:19:07.710Z,16.66
2018-06-18T05:21:36.991Z,16.80
2018-06-18T05:24:06.955Z,16.92
2018-06-18T05:26:38.653Z,17.05
2018-06-18T05:29:07.866Z,17.23
2018-06-18T05:31:37.018Z,17.35
2018-06-18T05:34:06.579Z,17.40
2018-06-18T05:36:35.674Z,17.57
2018-06-18T05:39:07.161Z,17.66
2018-06-18T05:41:36.427Z,17.83
2018-06-18T05:44:05.602Z,17.97
2018-06-18T05:46:34.585Z,18.08
2018-06-18T05:49:03.764Z,18.14
2018-06-18T05:51:34.149Z,18.28
2018-06-18T05:54:03.325Z,18.33
2018-06-18T05:56:33.717Z,18.38
2018-06-18T05:59:02.875Z,18.46
2018-06-18T06:01:33.741Z,18.67
2018-06-18T06:04:03.519Z,18.83
2018-06-18T06:06:37.482Z,18.92
2018-06-18T06:09:12.652Z,18.97
2018-06-18T06:11:43.022Z,19.00
2018-06-18T06:14:12.076Z,19.03
2018-06-18T06:16:41.080Z,19.13
2018-06-18T06:19:11.191Z,19.25
2018-06-18T06:21:40.356Z,19.35
2018-06-18T06:24:12.033Z,19.53
2018-06-18T06:26:48.940Z,19.57
2018-06-18T06:29:18.188Z,19.73
2018-06-18T06:31:49.599Z,19.88
2018-06-18T06:34:18.511Z,19.90
2018-06-18T06:36:47.534Z,19.92
2018-06-18T06:39:16.625Z,20.06
2018-06-18T06:41:49.630Z,20.14
2018-06-18T06:44:18.553Z,20.31
2018-06-18T06:46:47.506Z,20.31
2018-06-18T06:49:16.512Z,20.44
2018-06-18T06:51:45.488Z,20.37
2018-06-18T06:54:16.583Z,20.44
2018-06-18T06:56:45.520Z,20.51
2018-06-18T06:59:14.527Z,20.57
2018-06-18T07:01:43.890Z,20.67
2018-06-18T07:04:12.969Z,20.85
2018-06-18T07:06:42.128Z,20.91
2018-06-18T07:09:12.573Z,20.92
2018-06-18T07:11:41.466Z,21.03
2018-06-18T07:14:10.483Z,20.95
2018-06-18T07:16:39.487Z,20.96
2018-06-18T07:19:08.580Z,20.86
2018-06-18T07:21:37.583Z,20.87
2018-06-18T07:24:06.522Z,21.27
2018-06-18T07:26:35.423Z,21.41
2018-06-18T07:29:04.477Z,21.70
2018-06-18T07:31:33.596Z,21.71
2018-06-18T07:34:02.509Z,21.77
2018-06-18T07:36:31.459Z,21.64
2018-06-18T07:39:00.571Z,21.49
2018-06-18T07:41:29.498Z,21.23
2018-06-18T07:43:58.428Z,21.24
2018-06-18T07:46:27.416Z,21.38
2018-06-18T07:48:56.323Z,21.20
2018-06-18T07:51:25.408Z,21.23
2018-06-18T07:53:54.360Z,21.28
2018-06-18T07:56:23.383Z,21.29
2018-06-18T07:59:03.706Z,21.34
2018-06-18T08:01:32.679Z,21.43
2018-06-18T08:04:03.236Z,21.71
2018-06-18T08:06:32.096Z,21.81
2018-06-18T08:09:02.619Z,21.86
2018-06-18T08:11:31.668Z,21.71
2018-06-18T08:14:00.537Z,21.56
2018-06-18T08:16:29.488Z,21.41
2018-06-18T08:18:59.409Z,21.33
2018-06-18T08:21:30.585Z,21.38
2018-06-18T08:23:59.565Z,21.22
2018-06-18T08:26:29.125Z,21.18
2018-06-18T08:28:58.147Z,21.64
2018-06-18T08:31:27.440Z,22.00
2018-06-18T08:33:56.359Z,22.25
2018-06-18T08:36:25.642Z,22.47
2018-06-18T08:38:54.698Z,22.65
2018-06-18T08:41:23.770Z,22.95
2018-06-18T08:43:52.705Z,22.96
2018-06-18T08:46:22.337Z,22.81
2018-06-18T08:49:09.570Z,22.88
2018-06-18T08:51:43.915Z,22.57
2018-06-18T08:54:17.998Z,22.73
2018-06-18T08:56:52.136Z,22.68
2018-06-18T08:59:26.197Z,22.89
2018-06-18T09:01:55.289Z,22.90
2018-06-18T09:04:29.427Z,22.89
2018-06-18T09:09:05.137Z,22.89
2018-06-18T09:11:34.697Z,22.53
2018-06-18T09:14:03.662Z,22.82
2018-06-18T09:16:32.624Z,23.13
2018-06-18T09:19:01.692Z,23.54
2018-06-18T09:21:30.707Z,23.32
2018-06-18T09:24:01.155Z,23.04
2018-06-18T09:26:51.608Z,22.98
2018-06-18T09:29:24.692Z,22.93
2018-06-18T09:31:56.439Z,22.93
2018-06-18T09:34:25.512Z,22.65
2018-06-18T09:36:54.480Z,22.62
2018-06-18T09:39:23.447Z,22.47
2018-06-18T09:41:52.451Z,22.36
2018-06-18T09:44:21.302Z,22.38
2018-06-18T09:46:50.720Z,22.40
2018-06-18T09:49:24.917Z,22.32
2018-06-18T09:52:00.276Z,22.22
2018-06-18T09:54:34.236Z,21.84
2018-06-18T09:57:08.205Z,21.70
2018-06-18T09:59:42.114Z,21.62
2018-06-18T10:02:11.727Z,21.55
2018-06-18T10:04:41.811Z,21.55
2018-06-18T10:07:10.910Z,21.54
2018-06-18T10:09:39.844Z,21.56
2018-06-18T10:12:11.863Z,21.50
2018-06-18T10:14:42.560Z,21.51
2018-06-18T10:17:14.800Z,21.56
2018-06-18T10:19:44.031Z,21.63
2018-06-18T10:22:14.240Z,21.65
2018-06-18T10:24:43.229Z,21.48
2018-06-18T10:27:12.270Z,21.47
2018-06-18T10:29:41.102Z,21.66
2018-06-18T10:32:14.984Z,21.82
2018-06-18T10:38:15.654Z,22.33
2018-06-18T10:40:57.832Z,22.33
2018-06-18T10:43:36.572Z,22.56
2018-06-18T10:46:12.248Z,22.79
2018-06-18T10:48:40.946Z,22.83
2018-06-18T10:51:09.739Z,22.67
2018-06-18T10:53:41.387Z,22.95
2018-06-18T10:56:10.319Z,22.91
2018-06-18T10:58:40.721Z,22.62
2018-06-18T11:01:11.836Z,22.37
2018-06-18T11:03:47.442Z,22.38
2018-06-18T11:06:26.214Z,22.39
2018-06-18T11:09:04.675Z,22.12
2018-06-18T11:11:35.214Z,22.15
2018-06-18T11:17:24.550Z,22.17
2018-06-18T11:29:38.257Z,22.07
2018-06-18T11:34:57.623Z,22.17
2018-06-18T11:38:28.926Z,22.23
2018-06-18T11:40:59.833Z,22.25
2018-06-18T11:43:52.753Z,21.62
2018-06-18T11:46:23.208Z,22.18
2018-06-18T11:48:59.209Z,22.27
2018-06-18T11:51:31.930Z,22.48
2018-06-18T11:56:51.618Z,22.36
2018-06-18T11:59:26.041Z,22.45
2018-06-18T12:02:00.292Z,22.72
2018-06-18T12:04:36.823Z,22.73
2018-06-18T12:07:16.080Z,22.70
2018-06-18T12:09:50.060Z,22.44
2018-06-18T12:12:29.938Z,22.62
2018-06-18T12:14:59.732Z,22.42
2018-06-18T12:17:41.763Z,22.46
2018-06-18T12:20:25.317Z,22.44
2018-06-18T12:22:54.478Z,22.41
2018-06-18T12:25:26.025Z,22.65
2018-06-18T12:27:55.395Z,22.68
2018-06-18T12:30:26.280Z,22.37
2018-06-18T12:33:01.855Z,22.84
2018-06-18T12:35:33.354Z,22.82
2018-06-18T12:38:02.492Z,22.68
2018-06-18T12:41:05.141Z,23.16
2018-06-18T12:43:39.304Z,23.12
2018-06-18T12:46:28.099Z,23.17
2018-06-18T12:49:06.428Z,23.15
2018-06-18T12:51:50.650Z,23.30
2018-06-18T12:54:48.417Z,23.66
2018-06-18T12:57:29.560Z,23.97
2018-06-18T12:59:58.539Z,23.95
2018-06-18T13:02:35.788Z,23.98
2018-06-18T13:05:04.934Z,23.72
2018-06-18T13:07:35.999Z,23.77
2018-06-18T13:10:05.454Z,23.85
2018-06-18T13:12:36.121Z,23.66
2018-06-18T13:15:09.967Z,23.50
2018-06-18T13:17:49.526Z,23.45
2018-06-18T13:20:21.269Z,23.25
2018-06-18T13:22:51.416Z,23.06
2018-06-18T13:25:26.084Z,23.09
2018-06-18T13:28:00.532Z,23.11
2018-06-18T13:30:35.410Z,23.17
2018-06-18T13:33:10.558Z,22.56
2018-06-18T13:35:41.313Z,23.30
2018-06-18T13:38:30.588Z,23.39
2018-06-18T13:41:16.519Z,23.41
2018-06-18T13:43:58.494Z,23.71
2018-06-18T13:46:35.702Z,23.79
2018-06-18T13:49:09.005Z,23.81
2018-06-18T13:51:50.765Z,23.39
2018-06-18T13:54:22.809Z,23.85
2018-06-18T13:56:54.602Z,23.92
2018-06-18T13:59:35.906Z,24.18
2018-06-18T14:02:13.133Z,23.99
2018-06-18T14:05:01.688Z,23.95
2018-06-18T14:07:38.703Z,23.82
2018-06-18T14:10:28.575Z,23.90
2018-06-18T14:13:09.475Z,23.84
2018-06-18T14:16:07.851Z,23.77
2018-06-18T14:18:38.964Z,23.65
2018-06-18T14:21:17.185Z,23.56
2018-06-18T14:23:47.211Z,23.56
2018-06-18T14:26:19.409Z,23.49
2018-06-18T14:28:55.092Z,23.63
2018-06-18T14:31:39.535Z,24.04
2018-06-18T14:34:15.318Z,24.19
2018-06-18T14:45:12.526Z,24.29
2018-06-18T14:47:59.598Z,25.24
2018-06-18T14:50:43.581Z,25.53
2018-06-18T14:56:23.984Z,25.85
2018-06-18T15:04:14.553Z,24.90
2018-06-18T15:06:51.044Z,24.83
2018-06-18T15:09:36.407Z,24.72
2018-06-18T15:12:08.033Z,24.78
2018-06-18T15:14:51.073Z,24.87
2018-06-18T15:17:22.293Z,24.78
2018-06-18T15:20:10.511Z,24.90
2018-06-18T15:26:11.258Z,24.61
2018-06-18T15:29:04.901Z,24.44
2018-06-18T15:31:42.277Z,24.60
2018-06-18T15:34:23.958Z,24.48
2018-06-18T15:36:55.001Z,24.53
2018-06-18T15:39:31.509Z,24.70
2018-06-18T15:44:53.130Z,24.83
2018-06-18T15:50:56.626Z,24.85
2018-06-18T15:53:32.545Z,25.15
2018-06-18T15:59:21.934Z,24.84
2018-06-18T16:05:24.049Z,24.87
2018-06-18T16:35:38.082Z,22.69
2018-06-18T16:46:29.453Z,22.78
2018-06-18T17:12:56.615Z,22.44
2018-06-18T17:17:55.574Z,22.47
2018-06-18T17:24:58.773Z,22.40
2018-06-18T17:34:54.610Z,22.36
2018-06-18T17:42:13.421Z,22.18
2018-06-18T17:44:56.328Z,22.16
2018-06-18T17:53:25.358Z,22.02
2018-06-18T18:02:00.281Z,21.95
2018-06-18T18:04:40.072Z,21.86
2018-06-18T18:07:35.882Z,21.93
2018-06-18T18:10:13.115Z,21.93
2018-06-18T18:12:52.212Z,21.79
2018-06-18T18:15:31.428Z,21.62
2018-06-18T18:18:19.141Z,21.47
2018-06-18T18:20:57.092Z,21.43
2018-06-18T18:23:30.512Z,21.38
2018-06-18T18:25:59.691Z,21.30
2018-06-18T18:28:32.344Z,21.28
2018-06-18T18:31:03.486Z,21.34
2018-06-18T18:33:39.525Z,21.33
2018-06-18T18:36:09.913Z,21.27
2018-06-18T18:38:45.914Z,21.15
2018-06-18T18:41:15.306Z,21.03
2018-06-18T18:43:49.453Z,20.98
2018-06-18T18:46:21.709Z,20.88
2018-06-18T18:48:54.954Z,20.84
2018-06-18T18:51:54.672Z,20.82
2018-06-18T18:54:37.821Z,20.80
2018-06-18T19:00:07.022Z,20.63
2018-06-18T19:02:41.193Z,20.56
2018-06-18T19:05:10.723Z,20.47
2018-06-18T19:07:46.158Z,20.47
2018-06-18T19:10:24.797Z,20.55
2018-06-18T19:12:56.681Z,20.60
2018-06-18T19:15:26.375Z,20.63
2018-06-18T19:17:56.723Z,20.64
2018-06-18T19:20:35.943Z,20.56
2018-06-18T19:23:06.094Z,20.53
2018-06-18T19:25:36.532Z,20.50
2018-06-18T19:28:05.839Z,20.46
2018-06-18T19:30:37.803Z,20.39
2018-06-18T19:33:14.135Z,20.34
2018-06-18T19:35:43.868Z,20.30
2018-06-18T19:38:15.088Z,20.25
2018-06-18T19:40:45.093Z,20.21
2018-06-18T19:43:16.038Z,20.18
2018-06-18T19:45:48.696Z,20.15
2018-06-18T19:48:22.072Z,20.08
2018-06-18T19:50:51.300Z,20.02
2018-06-18T19:53:20.475Z,19.97
2018-06-18T19:55:50.437Z,19.94
2018-06-18T19:58:19.800Z,19.89
2018-06-18T20:00:57.527Z,19.71
2018-06-18T20:03:26.875Z,19.49
2018-06-18T20:05:57.202Z,19.38
2018-06-18T20:08:28.807Z,19.23
2018-06-18T20:10:58.275Z,19.13
2018-06-18T20:13:27.583Z,19.06
2018-06-18T20:15:57.050Z,19.02
2018-06-18T20:18:26.199Z,18.84
2018-06-18T20:20:55.707Z,18.88
2018-06-18T20:23:27.889Z,18.83
2018-06-18T20:26:03.937Z,18.74
2018-06-18T20:28:33.316Z,18.62
2018-06-18T20:31:03.374Z,18.47
2018-06-18T20:33:34.949Z,18.44
2018-06-18T20:36:12.236Z,18.35
2018-06-18T20:38:44.605Z,18.26
2018-06-18T20:45:24.196Z,18.11
2018-06-18T20:51:18.659Z,17.89
2018-06-18T20:59:07.022Z,17.84
2018-06-18T21:40:52.286Z,16.95
2018-06-18T21:44:06.092Z,17.03
2018-06-18T22:02:44.805Z,16.97
2018-06-18T22:24:04.214Z,16.69
2018-06-18T22:27:35.332Z,16.56
2018-06-18T22:40:48.176Z,16.60
2018-06-18T22:48:20.264Z,16.58
2018-06-18T22:54:34.193Z,16.62
2018-06-18T22:57:45.476Z,16.66
2018-06-18T23:02:39.070Z,16.66
2018-06-18T23:15:17.060Z,16.54
2018-06-18T23:23:15.607Z,16.52
2018-06-18T23:49:57.484Z,16.17
